»·PEaware :: N137AD KVNY-KSNA

N137AD :: KVNY-KSNA

FLIGHT INFORMATION

Flight Status: Arrived
Operator: Privately registered:
United States
More flights under this callsign
Pilot: Mike Z. (25595)
Aircraft: CESSNA 172 SKYHAWK
(C172)
More flights by this aircraft type
Origin: KVNY Van Nuys
United States
Destination: KSNA John Wayne-Orange Co
United States
More flights between these airports :: More routes between these airports
Route: +COASTAL RTE
File this flight plan on PilotEdge
Remarks: CAT-10-B
Altitude:
(Current/Filed)
5,500ft
Speed:
(Current/Filed)
110kts
Departed: 17-Aug-19 12:38 PM
Arrived: 17-Aug-19 01:14 PM
Distance/Time
Traveled:
45nm/0:36
Distance/Time
To Go:
Arrived

Flight Plot

Page will automatically refresh every two minutes.

Flight plan parsing failed; only flown route is shown


Map Options




Map Legend


Flown Route
Filed Route
Departure Airport
Arrival Airport
Navaid (VOR, NDB)
Fix

Horizontal Profiles

Position Reports

Time Latitude Longitude Heading Altitude Ground
Speed
17-Aug-19 12:26 34.217719 -118.493114 86 806ft 0kts
17-Aug-19 12:27 34.217719 -118.493114 86 806ft 0kts
17-Aug-19 12:28 34.217719 -118.493114 86 806ft 0kts
17-Aug-19 12:29 34.217719 -118.493114 86 806ft 0kts
17-Aug-19 12:30 34.217719 -118.493114 86 806ft 0kts
17-Aug-19 12:31 34.217250 -118.492410 50 806ft 10kts
17-Aug-19 12:32 34.219202 -118.492250 177 806ft 0kts
17-Aug-19 12:33 34.219201 -118.492250 177 806ft 0kts
17-Aug-19 12:34 34.219201 -118.492250 177 806ft 0kts
17-Aug-19 12:35 34.218713 -118.492147 79 806ft 0kts
17-Aug-19 12:36 34.217883 -118.491147 171 806ft 28kts
17-Aug-19 12:37 34.198561 -118.490300 186 1222ft 82kts
17-Aug-19 12:38 34.193903 -118.511031 282 1922ft 90kts
17-Aug-19 12:39 34.197073 -118.539814 256 2696ft 79kts
17-Aug-19 12:40 34.186283 -118.558107 167 3411ft 75kts
17-Aug-19 12:41 34.167932 -118.548760 160 4130ft 69kts
17-Aug-19 12:42 34.149640 -118.538195 157 4718ft 77kts
17-Aug-19 12:43 34.131607 -118.525875 153 5341ft 77kts
17-Aug-19 12:44 34.111747 -118.516559 159 5521ft 70kts
17-Aug-19 12:45 34.109887 -118.513671 149 5385ft 69kts
17-Aug-19 12:46 34.111348 -118.519161 150 5379ft 69kts
17-Aug-19 12:47 34.092754 -118.507547 168 5552ft 95kts
17-Aug-19 12:48 34.063939 -118.494758 162 5538ft 117kts
17-Aug-19 12:49 34.032934 -118.480130 161 5536ft 121kts
17-Aug-19 12:50 34.001646 -118.464777 161 5534ft 119kts
17-Aug-19 12:51 33.971027 -118.450444 165 5534ft 116kts
17-Aug-19 12:52 33.940673 -118.436959 160 5534ft 116kts
17-Aug-19 12:53 33.914653 -118.411636 143 5534ft 122kts
17-Aug-19 12:54 33.889696 -118.385932 143 5535ft 122kts
17-Aug-19 12:55 33.864108 -118.359085 142 5534ft 121kts
17-Aug-19 12:56 33.839166 -118.332946 143 5535ft 116kts
17-Aug-19 12:57 33.815065 -118.307816 143 5536ft 113kts
17-Aug-19 12:58 33.791288 -118.283023 142 5536ft 112kts
17-Aug-19 12:59 33.767564 -118.258366 142 5537ft 112kts
17-Aug-19 13:00 33.744037 -118.233848 142 5536ft 111kts
17-Aug-19 13:01 33.727735 -118.203056 110 5535ft 115kts
17-Aug-19 13:02 33.714362 -118.168021 118 5534ft 115kts
17-Aug-19 13:03 33.700904 -118.132513 118 5532ft 117kts
17-Aug-19 13:04 33.698079 -118.092384 94 4945ft 124kts
17-Aug-19 13:05 33.699240 -118.050438 87 3942ft 126kts
17-Aug-19 13:06 33.702283 -118.008914 86 3111ft 117kts
17-Aug-19 13:07 33.706886 -117.970714 84 2515ft 117kts
17-Aug-19 13:08 33.703254 -117.931884 109 1813ft 116kts
17-Aug-19 13:09 33.688183 -117.899007 90 1100ft 118kts
17-Aug-19 13:10 33.708069 -117.878267 29 1098ft 82kts
17-Aug-19 13:12 33.706760 -117.859772 138 898ft 71kts
17-Aug-19 13:13 33.689846 -117.860020 206 264ft 57kts
17-Aug-19 13:14 33.676525 -117.868302 207 60ft 30kts
17-Aug-19 13:15 33.674442 -117.868497 157 60ft 0kts
17-Aug-19 13:16 33.673199 -117.867145 213 60ft 10kts
17-Aug-19 13:17 33.670636 -117.869326 218 60ft 20kts
17-Aug-19 13:18 33.666971 -117.872806 98 60ft 3kts
17-Aug-19 13:19 33.667690 -117.871645 218 60ft 0kts
17-Aug-19 13:20 33.667690 -117.871645 218 60ft 0kts
17-Aug-19 13:21 33.667690 -117.871645 218 60ft 0kts
17-Aug-19 13:22 33.667690 -117.871645 218 60ft 0kts
17-Aug-19 13:23 33.667690 -117.871645 218 60ft 0kts
17-Aug-19 13:24 33.667690 -117.871645 218 60ft 0kts
17-Aug-19 13:25 33.667690 -117.871645 218 60ft 0kts
17-Aug-19 13:26 33.667690 -117.871645 218 60ft 0kts
17-Aug-19 13:27 33.667690 -117.871645 218 60ft 0kts
17-Aug-19 13:28 33.667690 -117.871645 218 60ft 0kts

Navigation Log

Ident Type
Flight plan parsing failed, navigation log unavailable